Time;durP1;ratioP1;P1;durP2;ratioP2;P2;SDS_P1;SDS_P2;PMS_P1;PMS_P2;Temp;Humidity;BMP_temperature;BMP_pressure;BME280_temperature;BME280_humidity;BME280_pressure;Samples;Min_cycle;Max_cycle;Signal;HPM_P1;HPM_P2
2021/04/11 00:14:44;;;;;;;0.20;0.20;;;;;;;;;;5106943;27;20355;-58
2021/04/11 00:17:10;;;;;;;0.10;0.10;;;;;;;;;;5088909;28;20028;-57
2021/04/11 00:19:36;;;;;;;0.63;0.63;;;;;;;;;;5089375;28;20501;-59
2021/04/11 00:22:02;;;;;;;0.15;0.15;;;;;;;;;;5088745;28;20097;-59
2021/04/11 00:24:28;;;;;;;0.20;0.20;;;;;;;;;;5088427;28;20025;-59
2021/04/11 00:26:54;;;;;;;0.20;0.20;;;;;;;;;;5088872;28;20390;-58
2021/04/11 00:29:21;;;;;;;0.20;0.20;;;;;;;;;;5087856;28;20477;-59
2021/04/11 00:31:47;;;;;;;0.17;0.17;;;;;;;;;;5089279;28;20036;-59
2021/04/11 00:34:13;;;;;;;0.10;0.10;;;;;;;;;;5087984;28;20494;-59
2021/04/11 00:36:39;;;;;;;1.85;1.75;;;;;;;;;;5088399;28;20062;-57
2021/04/11 00:39:05;;;;;;;0.40;0.40;;;;;;;;;;5088812;28;20020;-59
2021/04/11 00:41:33;;;;;;;0.20;0.20;;;;;;;;;;5087359;28;20017;-58
2021/04/11 00:44:01;;;;;;;0.20;0.20;;;;;;;;;;5090034;28;20044;-58
2021/04/11 00:46:45;;;;;;;0.13;0.13;;;;;;;;;;5087950;28;20048;-57
2021/04/11 00:49:18;;;;;;;0.20;0.20;;;;;;;;;;5087780;28;20020;-58
2021/04/11 00:51:45;;;;;;;0.10;0.10;;;;;;;;;;5088152;28;20017;-57
2021/04/11 00:54:11;;;;;;;0.10;0.10;;;;;;;;;;5088265;28;20040;-59
2021/04/11 00:56:38;;;;;;;8.85;1.88;;;;;;;;;;5086810;28;20578;-59
2021/04/11 00:59:06;;;;;;;0.10;0.10;;;;;;;;;;5087922;28;20501;-58
2021/04/11 01:01:33;;;;;;;0.10;0.10;;;;;;;;;;5086925;28;20024;-57
2021/04/11 01:04:01;;;;;;;0.43;0.43;;;;;;;;;;5086337;28;20036;-59
2021/04/11 01:06:32;;;;;;;0.20;0.20;;;;;;;;;;5086738;28;20028;-59
2021/04/11 01:08:59;;;;;;;0.10;0.10;;;;;;;;;;5088068;28;20507;-59
2021/04/11 01:11:30;;;;;;;1.02;1.02;;;;;;;;;;5087027;28;20040;-59
2021/04/11 01:13:58;;;;;;;0.10;0.10;;;;;;;;;;5081793;28;20049;-58
2021/04/11 01:16:25;;;;;;;1.75;0.98;;;;;;;;;;5076633;28;20033;-57
2021/04/11 01:18:55;;;;;;;0.55;0.55;;;;;;;;;;5070780;28;20024;-58
2021/04/11 01:21:43;;;;;;;0.20;0.20;;;;;;;;;;5069569;28;20027;-59
2021/04/11 01:24:13;;;;;;;0.13;0.13;;;;;;;;;;5071306;28;20391;-54
2021/04/11 01:26:43;;;;;;;0.57;0.57;;;;;;;;;;5071503;28;20364;-58
2021/04/11 01:29:11;;;;;;;0.10;0.10;;;;;;;;;;5073957;28;20409;-59
2021/04/11 01:31:37;;;;;;;0.20;0.20;;;;;;;;;;5064608;28;20016;-58
2021/04/11 01:34:05;;;;;;;0.17;0.17;;;;;;;;;;5064886;28;20371;-59
2021/04/11 01:36:32;;;;;;;0.15;0.15;;;;;;;;;;5070898;28;20066;-58
2021/04/11 01:39:02;;;;;;;0.63;0.63;;;;;;;;;;5070459;28;20060;-59
2021/04/11 01:41:41;;;;;;;0.10;0.10;;;;;;;;;;5070892;28;20052;-60
2021/04/11 01:44:08;;;;;;;0.10;0.10;;;;;;;;;;5071194;28;20106;-57
2021/04/11 01:46:35;;;;;;;0.13;0.13;;;;;;;;;;5070835;28;20021;-56
2021/04/11 01:49:01;;;;;;;0.10;0.10;;;;;;;;;;5071190;28;20470;-57
2021/04/11 01:51:33;;;;;;;0.10;0.10;;;;;;;;;;5071049;28;20028;-57
2021/04/11 01:54:00;;;;;;;0.20;0.20;;;;;;;;;;5068582;28;20055;-57
2021/04/11 01:56:28;;;;;;;0.10;0.10;;;;;;;;;;5071481;28;20038;-56
2021/04/11 01:59:00;;;;;;;0.10;0.10;;;;;;;;;;5071134;28;20032;-56
2021/04/11 02:01:31;;;;;;;0.20;0.20;;;;;;;;;;5070235;28;20029;-57
2021/04/11 02:04:04;;;;;;;0.20;0.20;;;;;;;;;;5062346;28;20544;-57
2021/04/11 02:06:34;;;;;;;0.20;0.20;;;;;;;;;;5058534;28;20025;-56
2021/04/11 02:09:06;;;;;;;;;;;;;;;;;;5069989;28;20090;-58
2021/04/11 02:11:38;;;;;;;0.10;0.10;;;;;;;;;;5052368;28;19908;-57
2021/04/11 02:14:05;;;;;;;0.20;0.20;;;;;;;;;;5070038;28;20525;-59
2021/04/11 02:16:33;;;;;;;0.20;0.20;;;;;;;;;;5064520;28;20028;-57
2021/04/11 02:19:00;;;;;;;0.20;0.20;;;;;;;;;;5065057;28;20497;-57
2021/04/11 02:21:27;;;;;;;0.13;0.13;;;;;;;;;;5064904;28;20021;-57
2021/04/11 02:23:56;;;;;;;0.10;0.10;;;;;;;;;;5069999;28;20065;-56
2021/04/11 02:26:26;;;;;;;0.10;0.10;;;;;;;;;;5069083;28;20024;-57
2021/04/11 02:29:05;;;;;;;0.20;0.20;;;;;;;;;;5070889;28;20043;-57
2021/04/11 02:31:32;;;;;;;0.10;0.10;;;;;;;;;;5064364;28;20036;-56
2021/04/11 02:34:05;;;;;;;0.20;0.20;;;;;;;;;;5068777;28;20020;-57
2021/04/11 02:36:36;;;;;;;0.20;0.20;;;;;;;;;;5064668;28;20029;-56
2021/04/11 02:39:06;;;;;;;0.10;0.10;;;;;;;;;;5070377;28;20129;-57
2021/04/11 02:41:33;;;;;;;0.15;0.15;;;;;;;;;;5069373;28;20028;-58
2021/04/11 02:43:59;;;;;;;0.20;0.20;;;;;;;;;;5068281;28;20045;-56
2021/04/11 02:46:26;;;;;;;0.20;0.20;;;;;;;;;;5066956;28;20185;-57
2021/04/11 02:48:54;;;;;;;0.47;0.47;;;;;;;;;;5064745;28;20020;-56
2021/04/11 02:51:27;;;;;;;0.10;0.10;;;;;;;;;;5070059;28;20028;-58
2021/04/11 02:53:57;;;;;;;0.20;0.20;;;;;;;;;;5070147;28;20028;-58
2021/04/11 02:56:32;;;;;;;0.20;0.20;;;;;;;;;;5068637;28;20123;-57
2021/04/11 02:58:59;;;;;;;0.17;0.17;;;;;;;;;;5070254;28;20079;-56
2021/04/11 03:01:29;;;;;;;0.10;0.10;;;;;;;;;;5062144;28;20028;-58
2021/04/11 03:03:56;;;;;;;0.20;0.20;;;;;;;;;;5062443;28;20040;-57
2021/04/11 03:06:23;;;;;;;0.10;0.10;;;;;;;;;;5070400;28;20036;-57
2021/04/11 03:08:56;;;;;;;0.10;0.10;;;;;;;;;;5069079;28;20024;-58
2021/04/11 03:11:29;;;;;;;;;;;;;;;;;;5070700;28;20034;-59
2021/04/11 03:13:56;;;;;;;2.67;1.95;;;;;;;;;;5067538;28;20370;-58
2021/04/11 03:16:24;;;;;;;2.08;1.17;;;;;;;;;;5066598;28;20051;-57
2021/04/11 03:18:55;;;;;;;5.43;4.90;;;;;;;;;;5069515;28;20082;-59
2021/04/11 03:21:23;;;;;;;2.30;1.98;;;;;;;;;;5066643;28;20039;-60
2021/04/11 03:23:50;;;;;;;0.70;0.70;;;;;;;;;;5069601;28;20056;-60
2021/04/11 03:26:25;;;;;;;3.55;2.60;;;;;;;;;;5069842;28;20023;-60
2021/04/11 03:28:58;;;;;;;1.25;1.13;;;;;;;;;;5082925;28;20063;-59
2021/04/11 03:31:29;;;;;;;1.85;1.38;;;;;;;;;;5072421;28;20021;-60
2021/04/11 03:33:58;;;;;;;0.90;0.90;;;;;;;;;;5055720;28;20029;-58
2021/04/11 03:36:25;;;;;;;1.15;1.10;;;;;;;;;;5057886;28;20033;-58
2021/04/11 03:38:53;;;;;;;2.50;1.80;;;;;;;;;;5068530;28;20039;-53
2021/04/11 03:41:19;;;;;;;2.22;1.48;;;;;;;;;;5069904;28;20397;-61
2021/04/11 03:43:53;;;;;;;0.90;0.90;;;;;;;;;;5064963;28;20036;-56
2021/04/11 03:46:34;;;;;;;0.63;0.63;;;;;;;;;;5069215;28;20382;-56
2021/04/11 03:49:33;;;;;;;1.75;1.60;;;;;;;;;;5069292;28;20523;-55
2021/04/11 03:52:03;;;;;;;0.30;0.30;;;;;;;;;;5049998;28;20028;-56
2021/04/11 03:54:34;;;;;;;1.55;1.45;;;;;;;;;;5048015;28;20121;-54
2021/04/11 03:57:07;;;;;;;0.45;0.45;;;;;;;;;;5049761;28;20029;-55
2021/04/11 03:59:47;;;;;;;0.63;0.63;;;;;;;;;;5034656;28;20127;-56
2021/04/11 04:02:16;;;;;;;1.58;1.27;;;;;;;;;;5048255;28;20626;-55
2021/04/11 04:04:43;;;;;;;0.60;0.60;;;;;;;;;;5054817;28;20053;-55
2021/04/11 04:07:12;;;;;;;1.55;0.88;;;;;;;;;;5043024;28;20044;-54
2021/04/11 04:09:41;;;;;;;0.30;0.30;;;;;;;;;;5050242;28;20085;-55
2021/04/11 04:12:12;;;;;;;0.40;0.40;;;;;;;;;;5046145;28;20406;-55
2021/04/11 04:14:41;;;;;;;0.32;0.32;;;;;;;;;;5066166;28;20056;-54
2021/04/11 04:17:08;;;;;;;0.20;0.20;;;;;;;;;;5047585;28;20245;-54
2021/04/11 04:19:41;;;;;;;0.90;0.88;;;;;;;;;;5050412;28;20478;-54
2021/04/11 04:22:22;;;;;;;0.30;0.30;;;;;;;;;;5046940;28;20379;-53
2021/04/11 04:25:10;;;;;;;0.80;0.47;;;;;;;;;;5050453;28;20029;-53
2021/04/11 04:28:03;;;;;;;0.10;0.10;;;;;;;;;;5059300;28;20092;-54
2021/04/11 04:30:36;;;;;;;0.20;0.20;;;;;;;;;;5068095;28;20486;-55
2021/04/11 04:33:02;;;;;;;0.20;0.20;;;;;;;;;;5068586;28;20032;-59
2021/04/11 04:35:38;;;;;;;0.50;0.50;;;;;;;;;;5067666;28;20509;-57
2021/04/11 04:38:26;;;;;;;0.30;0.30;;;;;;;;;;5068487;28;20050;-57
2021/04/11 04:40:55;;;;;;;0.20;0.20;;;;;;;;;;5068033;28;20032;-57
2021/04/11 04:43:23;;;;;;;0.20;0.20;;;;;;;;;;5063143;28;20139;-59
2021/04/11 04:45:56;;;;;;;0.20;0.20;;;;;;;;;;5069154;28;20054;-57
2021/04/11 04:48:31;;;;;;;0.10;0.10;;;;;;;;;;5063428;28;20448;-58
2021/04/11 04:51:12;;;;;;;0.17;0.17;;;;;;;;;;5069839;28;20028;-58
2021/04/11 04:53:53;;;;;;;0.17;0.17;;;;;;;;;;5071563;28;20032;-59
2021/04/11 04:56:27;;;;;;;0.20;0.20;;;;;;;;;;5086224;28;20086;-56
2021/04/11 04:59:01;;;;;;;0.10;0.10;;;;;;;;;;5072264;28;20027;-52
2021/04/11 05:01:36;;;;;;;0.20;0.20;;;;;;;;;;5071056;28;20108;-56
2021/04/11 05:04:13;;;;;;;0.10;0.10;;;;;;;;;;5065713;28;20097;-58
2021/04/11 05:06:42;;;;;;;0.40;0.40;;;;;;;;;;5073502;28;20032;-56
2021/04/11 05:09:38;;;;;;;0.10;0.10;;;;;;;;;;5070545;28;20111;-56
2021/04/11 05:12:14;;;;;;;0.20;0.20;;;;;;;;;;5060068;28;20039;-56
2021/04/11 05:14:52;;;;;;;0.20;0.20;;;;;;;;;;5056049;28;20060;-56
2021/04/11 05:17:23;;;;;;;0.30;0.30;;;;;;;;;;5068875;28;20025;-57
2021/04/11 05:19:53;;;;;;;0.17;0.17;;;;;;;;;;5070094;28;20028;-56
2021/04/11 05:22:31;;;;;;;0.20;0.20;;;;;;;;;;5062248;28;20033;-57
2021/04/11 05:25:04;;;;;;;0.32;0.32;;;;;;;;;;5066970;28;20107;-56
2021/04/11 05:27:38;;;;;;;0.13;0.13;;;;;;;;;;5070867;28;20055;-55
2021/04/11 05:30:09;;;;;;;1.23;1.17;;;;;;;;;;5072928;28;20040;-55
2021/04/11 05:32:35;;;;;;;0.10;0.10;;;;;;;;;;5072723;28;20513;-55
2021/04/11 05:35:01;;;;;;;0.20;0.20;;;;;;;;;;5073714;28;20048;-56
2021/04/11 05:37:34;;;;;;;0.10;0.10;;;;;;;;;;5072767;28;20067;-56
2021/04/11 05:40:16;;;;;;;0.20;0.20;;;;;;;;;;5067640;28;20025;-56
2021/04/11 05:42:42;;;;;;;0.20;0.20;;;;;;;;;;5072320;28;20447;-60
2021/04/11 05:45:27;;;;;;;0.10;0.10;;;;;;;;;;5071703;28;20104;-59
2021/04/11 05:47:56;;;;;;;0.75;0.75;;;;;;;;;;5057190;28;20039;-58
2021/04/11 05:50:24;;;;;;;0.10;0.10;;;;;;;;;;5072189;28;20094;-59
2021/04/11 05:53:09;;;;;;;0.13;0.13;;;;;;;;;;5066366;28;20036;-59
2021/04/11 05:55:39;;;;;;;0.20;0.20;;;;;;;;;;5070196;28;20494;-59
2021/04/11 05:58:08;;;;;;;0.20;0.20;;;;;;;;;;5069888;28;20414;-57
2021/04/11 06:00:57;;;;;;;0.15;0.15;;;;;;;;;;5069445;28;20074;-58
2021/04/11 06:03:25;;;;;;;0.20;0.20;;;;;;;;;;5071114;28;20048;-59
2021/04/11 06:06:06;;;;;;;0.17;0.17;;;;;;;;;;5072557;28;20036;-61
2021/04/11 06:08:35;;;;;;;0.10;0.10;;;;;;;;;;5071837;28;20024;-61
2021/04/11 06:11:12;;;;;;;0.10;0.10;;;;;;;;;;5072838;28;20032;-62
2021/04/11 06:13:38;;;;;;;0.20;0.20;;;;;;;;;;5071793;28;20071;-53
2021/04/11 06:16:15;;;;;;;0.10;0.10;;;;;;;;;;5072153;28;20032;-58
2021/04/11 06:18:51;;;;;;;0.15;0.15;;;;;;;;;;5072344;28;20085;-54
2021/04/11 06:21:17;;;;;;;0.20;0.20;;;;;;;;;;5067758;28;20025;-58
2021/04/11 06:23:48;;;;;;;0.20;0.20;;;;;;;;;;5071733;28;20094;-58
2021/04/11 06:26:17;;;;;;;0.10;0.10;;;;;;;;;;5068422;28;20032;-57
2021/04/11 06:29:02;;;;;;;0.10;0.10;;;;;;;;;;5066647;28;20449;-58
2021/04/11 06:31:31;;;;;;;0.10;0.10;;;;;;;;;;5071557;28;20032;-57
2021/04/11 06:34:01;;;;;;;0.10;0.10;;;;;;;;;;5070923;28;20367;-57
2021/04/11 06:36:31;;;;;;;0.15;0.15;;;;;;;;;;5067682;28;20068;-54
2021/04/11 06:39:02;;;;;;;0.10;0.10;;;;;;;;;;5067368;28;20032;-55
2021/04/11 06:41:37;;;;;;;0.10;0.10;;;;;;;;;;5068882;28;20028;-57
2021/04/11 06:44:04;;;;;;;;;;;;;;;;;;5071426;28;20405;-56
2021/04/11 06:46:30;;;;;;;0.10;0.10;;;;;;;;;;5071173;28;19991;-56
2021/04/11 06:49:11;;;;;;;0.15;0.15;;;;;;;;;;5070970;28;20036;-56
2021/04/11 06:51:49;;;;;;;0.32;0.32;;;;;;;;;;5070200;28;20107;-56
2021/04/11 06:54:36;;;;;;;0.20;0.20;;;;;;;;;;5070223;28;20052;-55
2021/04/11 06:57:05;;;;;;;0.15;0.15;;;;;;;;;;5034248;28;20029;-56
2021/04/11 06:59:40;;;;;;;0.22;0.22;;;;;;;;;;5048124;28;20045;-56
2021/04/11 07:02:24;;;;;;;0.20;0.20;;;;;;;;;;5027507;28;20045;-55
2021/04/11 07:04:56;;;;;;;0.45;0.45;;;;;;;;;;5047875;28;20033;-56
2021/04/11 07:07:41;;;;;;;3.22;2.83;;;;;;;;;;5048597;28;20474;-54
2021/04/11 07:10:24;;;;;;;4.10;1.70;;;;;;;;;;5048124;28;20586;-59
2021/04/11 07:13:08;;;;;;;0.57;0.57;;;;;;;;;;5047197;28;20470;-55
2021/04/11 07:15:40;;;;;;;0.40;0.40;;;;;;;;;;5048176;28;20052;-55
2021/04/11 07:18:09;;;;;;;2.92;1.92;;;;;;;;;;5048249;28;20060;-56
2021/04/11 07:20:54;;;;;;;2.08;1.52;;;;;;;;;;5047696;28;20048;-56
2021/04/11 07:23:29;;;;;;;4.43;1.70;;;;;;;;;;5048140;28;20045;-53
2021/04/11 07:26:10;;;;;;;1.40;0.93;;;;;;;;;;5045192;28;20124;-55
2021/04/11 07:28:51;;;;;;;4.47;1.20;;;;;;;;;;5028303;28;20167;-54
2021/04/11 07:31:20;;;;;;;1.08;1.00;;;;;;;;;;5046355;28;20036;-56
2021/04/11 07:33:58;;;;;;;1.65;1.13;;;;;;;;;;5036451;28;20387;-57
2021/04/11 07:36:39;;;;;;;0.43;0.32;;;;;;;;;;5064428;28;20073;-55
2021/04/11 07:39:32;;;;;;;0.73;0.60;;;;;;;;;;5067675;28;20016;-58
2021/04/11 07:42:08;;;;;;;0.73;0.73;;;;;;;;;;5064625;28;20024;-54
2021/04/11 07:44:53;;;;;;;0.32;0.32;;;;;;;;;;5064610;28;20028;-55
2021/04/11 07:47:38;;;;;;;0.47;0.47;;;;;;;;;;5067303;28;20029;-58
2021/04/11 07:50:22;;;;;;;0.28;0.28;;;;;;;;;;5068872;28;20074;-58
2021/04/11 07:52:49;;;;;;;0.20;0.20;;;;;;;;;;5068536;28;20025;-59
2021/04/11 07:55:22;;;;;;;1.35;0.95;;;;;;;;;;5069064;28;20398;-58
2021/04/11 07:57:57;;;;;;;0.73;0.73;;;;;;;;;;5065720;28;20112;-59
2021/04/11 08:00:24;;;;;;;0.20;0.20;;;;;;;;;;5067292;28;20025;-59
2021/04/11 08:02:53;;;;;;;0.40;0.40;;;;;;;;;;5062461;28;20425;-59
2021/04/11 08:05:48;;;;;;;0.40;0.40;;;;;;;;;;5062883;28;20033;-60
2021/04/11 08:08:39;;;;;;;0.47;0.47;;;;;;;;;;5057031;28;20127;-60
2021/04/11 08:11:23;;;;;;;0.90;0.50;;;;;;;;;;5069011;28;20021;-60
2021/04/11 08:13:53;;;;;;;3.50;1.67;;;;;;;;;;5068860;28;20053;-64
2021/04/11 08:16:31;;;;;;;0.50;0.50;;;;;;;;;;5066169;28;20043;-59
2021/04/11 08:19:09;;;;;;;0.90;0.70;;;;;;;;;;5067499;28;20111;-59
2021/04/11 08:21:42;;;;;;;0.55;0.55;;;;;;;;;;5070120;28;20032;-59
2021/04/11 08:24:27;;;;;;;5.40;3.17;;;;;;;;;;5070480;28;20050;-61
2021/04/11 08:27:19;;;;;;;16.52;2.05;;;;;;;;;;5059239;28;20390;-59
2021/04/11 08:29:54;;;;;;;1.13;0.88;;;;;;;;;;5056896;28;20398;-58
2021/04/11 08:32:38;;;;;;;3.50;1.58;;;;;;;;;;5069819;28;20056;-58
2021/04/11 08:35:17;;;;;;;1.75;0.85;;;;;;;;;;5073828;28;20032;-59
2021/04/11 08:37:52;;;;;;;3.72;1.38;;;;;;;;;;5074152;28;20040;-59
2021/04/11 08:40:18;;;;;;;0.22;0.22;;;;;;;;;;5073532;28;20120;-59
2021/04/11 08:42:44;;;;;;;0.30;0.30;;;;;;;;;;5073657;28;20023;-57
2021/04/11 08:45:29;;;;;;;0.90;0.88;;;;;;;;;;5074086;28;20081;-58
2021/04/11 08:47:58;;;;;;;1.25;1.05;;;;;;;;;;5060812;28;20613;-59
2021/04/11 08:50:28;;;;;;;15.25;1.17;;;;;;;;;;5069156;28;20039;-59
2021/04/11 08:53:13;;;;;;;0.57;0.57;;;;;;;;;;5071963;28;20494;-59
2021/04/11 08:55:42;;;;;;;0.47;0.47;;;;;;;;;;5070690;28;20020;-60
2021/04/11 08:58:14;;;;;;;0.40;0.40;;;;;;;;;;5070148;28;20036;-57
2021/04/11 09:00:52;;;;;;;1.05;1.05;;;;;;;;;;5065319;28;20064;-60
2021/04/11 09:03:37;;;;;;;0.20;0.20;;;;;;;;;;5065981;28;20510;-58
2021/04/11 09:06:03;;;;;;;0.40;0.40;;;;;;;;;;5073192;28;20069;-60
2021/04/11 09:08:34;;;;;;;0.95;0.85;;;;;;;;;;5070748;28;20043;-57
2021/04/11 09:11:08;;;;;;;0.35;0.35;;;;;;;;;;5067732;28;20044;-59
2021/04/11 09:13:53;;;;;;;0.28;0.28;;;;;;;;;;5058765;28;20037;-58
2021/04/11 09:16:31;;;;;;;6.53;1.20;;;;;;;;;;5059793;28;20114;-58
2021/04/11 09:19:16;;;;;;;0.30;0.30;;;;;;;;;;5059707;28;20048;-59
2021/04/11 09:21:54;;;;;;;1.30;1.17;;;;;;;;;;5066503;28;20037;-60
2021/04/11 09:24:20;;;;;;;0.20;0.20;;;;;;;;;;5067117;28;20377;-62
2021/04/11 09:27:05;;;;;;;0.50;0.50;;;;;;;;;;5066608;28;20103;-57
2021/04/11 09:29:35;;;;;;;0.40;0.40;;;;;;;;;;5069022;28;20505;-56
2021/04/11 09:32:19;;;;;;;0.75;0.75;;;;;;;;;;5068676;28;20103;-59
2021/04/11 09:34:51;;;;;;;1.43;1.33;;;;;;;;;;5070420;28;20029;-59
2021/04/11 09:37:50;;;;;;;1.00;0.95;;;;;;;;;;5071200;28;20111;-56
2021/04/11 09:40:35;;;;;;;0.50;0.50;;;;;;;;;;5046530;28;20143;-57
2021/04/11 09:43:04;;;;;;;0.63;0.55;;;;;;;;;;5046804;28;20104;-55
2021/04/11 09:45:35;;;;;;;0.47;0.47;;;;;;;;;;5045014;28;20025;-62
2021/04/11 09:48:10;;;;;;;0.60;0.60;;;;;;;;;;5043322;28;20048;-60
2021/04/11 09:50:36;;;;;;;2.30;0.85;;;;;;;;;;5045452;28;20079;-57
2021/04/11 09:53:21;;;;;;;0.20;0.20;;;;;;;;;;5047070;28;20199;-57
2021/04/11 09:55:56;;;;;;;1.40;1.23;;;;;;;;;;5046557;28;20037;-58
2021/04/11 09:58:31;;;;;;;0.57;0.57;;;;;;;;;;5042603;28;20487;-56
2021/04/11 10:01:09;;;;;;;0.65;0.65;;;;;;;;;;5041912;28;20048;-56
2021/04/11 10:03:35;;;;;;;2.20;2.05;;;;;;;;;;5042234;28;20148;-57
2021/04/11 10:06:04;;;;;;;1.00;0.98;;;;;;;;;;5043789;28;20029;-59
2021/04/11 10:08:40;;;;;;;0.20;0.20;;;;;;;;;;5047560;28;20037;-57
2021/04/11 10:11:09;;;;;;;0.60;0.60;;;;;;;;;;5048935;28;20225;-57
2021/04/11 10:13:41;;;;;;;4.88;2.17;;;;;;;;;;5046877;28;20622;-57
2021/04/11 10:16:19;;;;;;;0.38;0.38;;;;;;;;;;5062338;28;20037;-56
2021/04/11 10:18:49;;;;;;;1.98;1.88;;;;;;;;;;5071400;28;20597;-56
2021/04/11 10:21:15;;;;;;;1.23;1.02;;;;;;;;;;5071676;28;20028;-56
2021/04/11 10:24:07;;;;;;;1.20;0.85;;;;;;;;;;5072053;28;20048;-55
2021/04/11 10:26:46;;;;;;;1.52;1.42;;;;;;;;;;5069537;28;20044;-54
2021/04/11 10:29:20;;;;;;;0.30;0.30;;;;;;;;;;5072499;28;20029;-54
2021/04/11 10:31:59;;;;;;;10.88;1.80;;;;;;;;;;5067577;28;20501;-56
2021/04/11 10:34:40;;;;;;;0.32;0.32;;;;;;;;;;5071452;28;20035;-54
2021/04/11 10:37:11;;;;;;;0.52;0.32;;;;;;;;;;5071497;28;20031;-57
2021/04/11 10:39:43;;;;;;;1.35;1.10;;;;;;;;;;5071880;28;20119;-57
2021/04/11 10:42:25;;;;;;;0.30;0.30;;;;;;;;;;5071735;28;20028;-56
2021/04/11 10:45:14;;;;;;;0.40;0.40;;;;;;;;;;5064659;28;20041;-57
2021/04/11 10:47:49;;;;;;;7.05;1.17;;;;;;;;;;5069106;28;20212;-55
2021/04/11 10:50:24;;;;;;;0.90;0.38;;;;;;;;;;5072106;28;20501;-56
2021/04/11 10:52:51;;;;;;;0.17;0.17;;;;;;;;;;5070797;28;20098;-55
2021/04/11 10:55:17;;;;;;;0.43;0.43;;;;;;;;;;5068458;28;20162;-57
2021/04/11 10:57:52;;;;;;;0.10;0.10;;;;;;;;;;5069272;28;20029;-57
2021/04/11 11:00:27;;;;;;;1.50;0.80;;;;;;;;;;5069854;28;20123;-55
2021/04/11 11:02:59;;;;;;;0.17;0.17;;;;;;;;;;5066395;28;20040;-57
2021/04/11 11:05:40;;;;;;;1.95;0.50;;;;;;;;;;5066974;28;20062;-55
2021/04/11 11:08:13;;;;;;;0.10;0.10;;;;;;;;;;5067776;28;20029;-54
2021/04/11 11:10:58;;;;;;;0.30;0.30;;;;;;;;;;5068804;28;20120;-55
2021/04/11 11:13:32;;;;;;;0.30;0.30;;;;;;;;;;5061130;28;20048;-53
2021/04/11 11:16:07;;;;;;;0.68;0.68;;;;;;;;;;5065329;28;20031;-51
2021/04/11 11:18:45;;;;;;;1.10;0.60;;;;;;;;;;5065992;28;20378;-54
2021/04/11 11:21:30;;;;;;;0.30;0.30;;;;;;;;;;5067339;28;20199;-56
2021/04/11 11:24:07;;;;;;;1.30;0.28;;;;;;;;;;5067827;28;20458;-54
2021/04/11 11:26:52;;;;;;;5.85;0.40;;;;;;;;;;5068427;28;20017;-53
2021/04/11 11:29:27;;;;;;;0.52;0.45;;;;;;;;;;5066875;28;20060;-56
2021/04/11 11:32:11;;;;;;;0.40;0.40;;;;;;;;;;5065315;28;20093;-55
2021/04/11 11:34:40;;;;;;;0.20;0.20;;;;;;;;;;5068024;28;20086;-58
2021/04/11 11:37:06;;;;;;;1.58;0.30;;;;;;;;;;5069302;28;20024;-56
2021/04/11 11:39:42;;;;;;;0.43;0.43;;;;;;;;;;5070458;28;20036;-55
2021/04/11 11:42:27;;;;;;;0.50;0.50;;;;;;;;;;5068933;28;20410;-57
2021/04/11 11:45:09;;;;;;;0.82;0.75;;;;;;;;;;5067379;28;20123;-56
2021/04/11 11:47:42;;;;;;;0.45;0.40;;;;;;;;;;5067469;28;20051;-57
2021/04/11 11:50:26;;;;;;;0.30;0.30;;;;;;;;;;5068586;28;20048;-56
2021/04/11 11:52:55;;;;;;;0.20;0.20;;;;;;;;;;5062665;28;20478;-57
2021/04/11 11:55:23;;;;;;;0.88;0.68;;;;;;;;;;5064087;28;20108;-57
2021/04/11 11:57:49;;;;;;;4.30;0.32;;;;;;;;;;5070047;28;20042;-57
2021/04/11 12:00:45;;;;;;;0.20;0.20;;;;;;;;;;5066454;28;20021;-55
2021/04/11 12:03:20;;;;;;;1.00;0.50;;;;;;;;;;5060816;28;20041;-56
2021/04/11 12:05:49;;;;;;;0.10;0.10;;;;;;;;;;5054602;28;20020;-56
2021/04/11 12:08:34;;;;;;;0.73;0.38;;;;;;;;;;5063850;28;20031;-57
2021/04/11 12:11:03;;;;;;;0.60;0.55;;;;;;;;;;5066592;28;20027;-55
2021/04/11 12:13:29;;;;;;;0.32;0.32;;;;;;;;;;5065336;28;20059;-55
2021/04/11 12:15:56;;;;;;;0.20;0.20;;;;;;;;;;5065287;28;20044;-55
2021/04/11 12:18:24;;;;;;;4.03;0.47;;;;;;;;;;5063866;28;20036;-66
2021/04/11 12:20:53;;;;;;;0.15;0.15;;;;;;;;;;5068946;28;20021;-63
2021/04/11 12:23:38;;;;;;;0.85;0.68;;;;;;;;;;5070209;28;20036;-60
2021/04/11 12:26:10;;;;;;;0.20;0.20;;;;;;;;;;5069566;28;20035;-60
2021/04/11 12:28:37;;;;;;;0.20;0.20;;;;;;;;;;5068819;28;20025;-59
2021/04/11 12:31:21;;;;;;;0.52;0.52;;;;;;;;;;5069987;28;20501;-61
2021/04/11 12:33:59;;;;;;;0.10;0.10;;;;;;;;;;5068850;28;20486;-66
2021/04/11 12:36:30;;;;;;;2.05;0.57;;;;;;;;;;5069837;28;20026;-63
2021/04/11 12:38:58;;;;;;;0.20;0.20;;;;;;;;;;5067164;28;20029;-57
2021/04/11 12:41:24;;;;;;;1.65;0.60;;;;;;;;;;5069998;28;20028;-58
2021/04/11 12:43:59;;;;;;;0.68;0.50;;;;;;;;;;5068859;28;20052;-58
2021/04/11 12:46:41;;;;;;;0.30;0.30;;;;;;;;;;5069733;28;20032;-59
2021/04/11 12:49:19;;;;;;;0.45;0.45;;;;;;;;;;5069699;28;20112;-58
2021/04/11 12:51:53;;;;;;;0.10;0.10;;;;;;;;;;5069869;28;20464;-59
2021/04/11 12:54:22;;;;;;;0.47;0.47;;;;;;;;;;5069381;28;20032;-58
2021/04/11 12:57:02;;;;;;;0.20;0.20;;;;;;;;;;5054344;28;20024;-57
2021/04/11 12:59:36;;;;;;;0.40;0.30;;;;;;;;;;5083181;28;20043;-58
2021/04/11 13:02:15;;;;;;;5.90;0.60;;;;;;;;;;5068364;28;20027;-59
2021/04/11 13:04:43;;;;;;;1.00;0.47;;;;;;;;;;5069258;28;20102;-58
2021/04/11 13:07:09;;;;;;;1.17;0.63;;;;;;;;;;5068728;28;20478;-57
2021/04/11 13:09:54;;;;;;;3.63;0.32;;;;;;;;;;5068978;28;20032;-58
2021/04/11 13:12:23;;;;;;;0.20;0.20;;;;;;;;;;5072729;28;20054;-59
2021/04/11 13:15:00;;;;;;;0.10;0.10;;;;;;;;;;5057231;28;20037;-61
2021/04/11 13:17:49;;;;;;;0.10;0.10;;;;;;;;;;5072770;28;20020;-60
2021/04/11 13:20:22;;;;;;;0.30;0.30;;;;;;;;;;5070872;28;20047;-58
2021/04/11 13:22:59;;;;;;;0.10;0.10;;;;;;;;;;5072414;28;20055;-59
2021/04/11 13:26:00;;;;;;;7.25;0.40;;;;;;;;;;5072217;28;20456;-59
2021/04/11 13:28:39;;;;;;;0.20;0.20;;;;;;;;;;5039469;28;20100;-57
2021/04/11 13:31:09;;;;;;;9.20;1.17;;;;;;;;;;5048652;28;20050;-60
2021/04/11 13:33:49;;;;;;;0.20;0.20;;;;;;;;;;5050441;28;20111;-58
2021/04/11 13:36:41;;;;;;;0.35;0.22;;;;;;;;;;5050428;28;20039;-59
2021/04/11 13:39:21;;;;;;;4.82;0.28;;;;;;;;;;5045837;28;20033;-58
2021/04/11 13:41:56;;;;;;;2.17;1.05;;;;;;;;;;5050686;28;20317;-60
2021/04/11 13:44:26;;;;;;;0.20;0.20;;;;;;;;;;5050384;28;20430;-58
2021/04/11 13:47:00;;;;;;;0.55;0.55;;;;;;;;;;5051055;28;20043;-58
2021/04/11 13:49:33;;;;;;;0.10;0.10;;;;;;;;;;5050207;28;20120;-60
2021/04/11 13:52:09;;;;;;;0.10;0.10;;;;;;;;;;5050192;28;20092;-59
2021/04/11 13:54:54;;;;;;;0.10;0.10;;;;;;;;;;5049852;28;20037;-59
2021/04/11 13:57:39;;;;;;;0.23;0.23;;;;;;;;;;5049977;28;20041;-59
2021/04/11 14:00:11;;;;;;;1.35;0.45;;;;;;;;;;5038698;28;20654;-60
2021/04/11 14:02:51;;;;;;;0.20;0.20;;;;;;;;;;5049382;28;20040;-60
2021/04/11 14:05:35;;;;;;;2.72;1.80;;;;;;;;;;5068958;28;20044;-58
2021/04/11 14:08:06;;;;;;;0.65;0.30;;;;;;;;;;5070921;28;20039;-57
2021/04/11 14:10:40;;;;;;;3.40;0.52;;;;;;;;;;5072073;28;20025;-60
2021/04/11 14:13:09;;;;;;;0.88;0.80;;;;;;;;;;5071670;28;20040;-58
2021/04/11 14:15:35;;;;;;;0.20;0.20;;;;;;;;;;5072158;28;20056;-57
2021/04/11 14:18:04;;;;;;;0.20;0.20;;;;;;;;;;5072251;28;20060;-57
2021/04/11 14:20:45;;;;;;;0.52;0.40;;;;;;;;;;5071289;28;20059;-57
2021/04/11 14:23:29;;;;;;;0.10;0.10;;;;;;;;;;5072185;28;20076;-57
2021/04/11 14:26:02;;;;;;;0.10;0.10;;;;;;;;;;5067639;28;20040;-57
2021/04/11 14:28:32;;;;;;;0.10;0.10;;;;;;;;;;5071433;28;20517;-58
2021/04/11 14:31:27;;;;;;;0.22;0.22;;;;;;;;;;5071879;28;20067;-56
2021/04/11 14:33:56;;;;;;;0.20;0.20;;;;;;;;;;5069429;28;20047;-57
2021/04/11 14:36:23;;;;;;;0.20;0.20;;;;;;;;;;5067056;28;20078;-58
2021/04/11 14:38:57;;;;;;;0.15;0.15;;;;;;;;;;5071665;28;20444;-56
2021/04/11 14:41:27;;;;;;;7.38;0.63;;;;;;;;;;5071840;28;20505;-56
2021/04/11 14:43:55;;;;;;;0.20;0.20;;;;;;;;;;5066494;28;20032;-57
2021/04/11 14:46:24;;;;;;;3.92;0.75;;;;;;;;;;5069685;28;20028;-55
2021/04/11 14:48:51;;;;;;;6.38;0.68;;;;;;;;;;5070975;28;20029;-57
2021/04/11 14:51:17;;;;;;;2.45;0.40;;;;;;;;;;5071190;28;20078;-56
2021/04/11 14:53:56;;;;;;;0.10;0.10;;;;;;;;;;5071127;28;20028;-55
2021/04/11 14:56:41;;;;;;;0.55;0.40;;;;;;;;;;5083965;28;20035;-56
2021/04/11 14:59:10;;;;;;;0.17;0.17;;;;;;;;;;5072106;28;20435;-55
2021/04/11 15:01:41;;;;;;;0.65;0.20;;;;;;;;;;5070600;28;20032;-56
2021/04/11 15:04:10;;;;;;;0.20;0.20;;;;;;;;;;5070964;28;20040;-57
2021/04/11 15:06:43;;;;;;;0.10;0.10;;;;;;;;;;5068170;28;20108;-57
2021/04/11 15:09:18;;;;;;;0.10;0.10;;;;;;;;;;5070095;28;20030;-57
2021/04/11 15:12:04;;;;;;;2.25;0.30;;;;;;;;;;5070827;28;20043;-56
2021/04/11 15:14:34;;;;;;;3.40;0.35;;;;;;;;;;5068775;28;20090;-54
2021/04/11 15:17:08;;;;;;;0.10;0.10;;;;;;;;;;5069864;28;20451;-56
2021/04/11 15:19:44;;;;;;;0.10;0.10;;;;;;;;;;5070207;28;20020;-55
2021/04/11 15:22:24;;;;;;;0.95;0.52;;;;;;;;;;5070571;28;20032;-57
2021/04/11 15:25:02;;;;;;;0.20;0.20;;;;;;;;;;5062539;28;20039;-58
2021/04/11 15:27:34;;;;;;;0.20;0.20;;;;;;;;;;5069721;28;20032;-57
2021/04/11 15:30:08;;;;;;;0.30;0.30;;;;;;;;;;5068775;28;20020;-57
2021/04/11 15:32:41;;;;;;;0.30;0.30;;;;;;;;;;5070125;28;20039;-57
2021/04/11 15:35:26;;;;;;;0.65;0.65;;;;;;;;;;5069489;28;20111;-61
2021/04/11 15:37:58;;;;;;;0.20;0.20;;;;;;;;;;5066030;28;20039;-56